< Typhoon 195506 1955 Season Typhoon 195508 >
Typhoon 195507 (CLARA)
General InformationTrack Information on Google Maps || Disaster Info.ResourceGoogle EarthGE AnimationAtom FeedGeoJSON
Detalied Best Track (Time Zone = UTC)
Year Month Day Hour Lat. Long. Pressure (hPa) Wind (kt) Class Image Chart
1955 7 5 00 10.4 146.6 1008 0 2 -- Chart
1955 7 5 06 11.0 146.0 1008 0 2 -- Chart
1955 7 5 12 11.5 145.5 1008 0 2 -- Chart
1955 7 5 18 12.1 144.9 1006 0 2 -- Chart
1955 7 6 00 12.7 144.2 1006 0 2 -- Chart
1955 7 6 06 13.3 143.6 1006 0 2 -- Chart
1955 7 6 12 13.5 142.6 1006 0 2 -- Chart
1955 7 6 18 13.6 141.4 1006 0 2 -- Chart
1955 7 7 00 13.8 140.2 1006 0 2 -- Chart
1955 7 7 06 14.0 139.2 1005 0 9 -- Chart
1955 7 7 12 14.1 138.5 1005 0 9 -- Chart
1955 7 7 18 14.3 137.8 1005 0 9 -- Chart
1955 7 8 00 14.4 137.3 1005 0 9 -- Chart
1955 7 8 06 14.4 136.7 1004 0 9 -- Chart
1955 7 8 12 14.4 136.1 1004 0 9 -- Chart
1955 7 8 18 14.5 135.6 1004 0 9 -- Chart
1955 7 9 00 15.0 135.4 1000 0 9 -- Chart
1955 7 9 06 15.8 135.2 998 0 9 -- Chart
1955 7 9 12 16.4 134.8 998 0 9 -- Chart
1955 7 9 18 17.0 134.4 994 0 9 -- Chart
1955 7 10 00 17.7 133.6 990 0 9 -- Chart
1955 7 10 06 18.8 133.0 985 0 9 -- Chart
1955 7 10 12 19.6 132.2 980 0 9 -- Chart
1955 7 10 18 20.0 131.0 970 0 9 -- Chart
1955 7 11 00 21.0 130.0 965 0 9 -- Chart
1955 7 11 06 22.2 128.9 955 0 9 -- Chart
1955 7 11 12 22.7 127.8 955 0 9 -- Chart
1955 7 11 18 23.2 126.7 955 0 9 -- Chart
1955 7 12 00 23.8 125.8 940 0 9 -- Chart
1955 7 12 06 24.4 125.2 940 0 9 -- Chart
1955 7 12 12 24.8 124.8 940 0 9 -- Chart
1955 7 12 18 25.1 125.0 940 0 9 -- Chart
1955 7 13 00 25.6 125.0 920 0 9 -- Chart
1955 7 13 06 26.0 125.0 920 0 9 -- Chart
1955 7 13 12 26.5 125.2 930 0 9 -- Chart
1955 7 13 18 27.4 125.3 930 0 9 -- Chart
1955 7 14 00 27.9 125.2 940 0 9 -- Chart
1955 7 14 06 28.2 125.2 950 0 9 -- Chart
1955 7 14 12 28.6 125.1 960 0 9 -- Chart
1955 7 14 18 29.1 125.1 960 0 9 -- Chart
1955 7 15 00 29.8 125.0 970 0 9 -- Chart
1955 7 15 06 30.5 124.8 970 0 9 -- Chart
1955 7 15 12 31.4 123.6 980 0 9 -- Chart
1955 7 15 18 32.3 123.0 980 0 9 -- Chart
1955 7 16 00 33.7 122.2 985 0 9 -- Chart
1955 7 16 06 34.4 121.5 990 0 9 -- Chart
1955 7 16 12 35.0 121.0 995 0 9 -- Chart
1955 7 16 18 35.5 120.4 1000 0 2 -- Chart
1955 7 17 00 36.2 119.8 1000 0 2 -- Chart
1955 7 17 06 36.5 118.8 1000 0 2 -- Chart
1955 7 17 12 37.2 117.1 1000 0 2 -- Chart
1955 7 17 18 38.0 115.0 1000 0 2 -- Chart
Japan Meteorological Agency Best Track Data | Correction Date : 1989-06-01
< Typhoon 195506 1955 Season Typhoon 195508 >

Help